Time;durP1;ratioP1;P1;durP2;ratioP2;P2;SDS_P1;SDS_P2;PMS_P1;PMS_P2;Temp;Humidity;BMP_temperature;BMP_pressure;BME280_temperature;BME280_humidity;BME280_pressure;Samples;Min_cycle;Max_cycle;Signal;HPM_P1;HPM_P2
2022/02/21 00:00:47;;;;;;;63.95;30.52;;;;;;;;;;5096180;28;20281;-74
2022/02/21 00:03:20;;;;;;;61.85;31.83;;;;;;;;;;5096753;28;20443;-74
2022/02/21 00:05:49;;;;;;;56.80;31.33;;;;;;;;;;5096634;28;20234;-73
2022/02/21 00:08:16;;;;;;;50.65;28.65;;;;;;;;;;5083720;28;20273;-74
2022/02/21 00:10:44;;;;;;;52.58;29.75;;;;;;;;;;5075988;28;20584;-73
2022/02/21 00:13:13;;;;;;;56.95;33.08;;;;;;;;;;5075881;28;20241;-74
2022/02/21 00:15:40;;;;;;;53.17;30.23;;;;;;;;;;5089539;28;20314;-75
2022/02/21 00:18:08;;;;;;;50.65;30.05;;;;;;;;;;5097900;28;20606;-76
2022/02/21 00:20:38;;;;;;;54.00;31.85;;;;;;;;;;5095872;27;20281;-76
2022/02/21 00:23:07;;;;;;;56.50;33.33;;;;;;;;;;5097874;28;20316;-75
2022/02/21 00:25:38;;;;;;;57.53;33.20;;;;;;;;;;5082404;28;20511;-75
2022/02/21 00:28:17;;;;;;;49.03;26.67;;;;;;;;;;5082688;28;20548;-77
2022/02/21 00:30:45;;;;;;;59.80;31.60;;;;;;;;;;5088060;28;20226;-75
2022/02/21 00:33:13;;;;;;;16.83;9.60;;;;;;;;;;5091473;28;20210;-77
2022/02/21 00:35:51;;;;;;;74.55;31.58;;;;;;;;;;5090975;28;20303;-77
2022/02/21 00:38:21;;;;;;;59.25;25.02;;;;;;;;;;5100991;28;20487;-75
2022/02/21 00:40:59;;;;;;;75.50;37.63;;;;;;;;;;5091214;28;20281;-75
2022/02/21 00:43:27;;;;;;;72.40;36.05;;;;;;;;;;5095896;28;20215;-75
2022/02/21 00:45:57;;;;;;;43.97;26.90;;;;;;;;;;5092477;28;20526;-74
2022/02/21 00:48:24;;;;;;;50.80;33.75;;;;;;;;;;5098507;28;20219;-76
2022/02/21 00:50:55;;;;;;;51.20;32.63;;;;;;;;;;5100236;28;20594;-76
2022/02/21 00:53:23;;;;;;;40.90;28.10;;;;;;;;;;5080913;28;20223;-76
2022/02/21 00:55:51;;;;;;;40.45;29.33;;;;;;;;;;5087548;28;20509;-76
2022/02/21 00:58:19;;;;;;;49.15;29.45;;;;;;;;;;5089348;28;20218;-75
2022/02/21 01:00:47;;;;;;;47.25;29.10;;;;;;;;;;5080616;28;20238;-76
2022/02/21 01:03:17;;;;;;;44.83;31.63;;;;;;;;;;5080934;28;20223;-75
2022/02/21 01:05:45;;;;;;;29.45;26.25;;;;;;;;;;5081879;28;20246;-75
2022/02/21 01:08:14;;;;;;;31.58;28.60;;;;;;;;;;5086269;28;20254;-75
2022/02/21 01:10:45;;;;;;;24.48;22.35;;;;;;;;;;5080979;28;20535;-76
2022/02/21 01:13:12;;;;;;;23.88;21.60;;;;;;;;;;5080464;28;20268;-75
2022/02/21 01:15:40;;;;;;;21.17;19.33;;;;;;;;;;5080831;28;20223;-76
2022/02/21 01:18:08;;;;;;;20.33;18.55;;;;;;;;;;5092384;28;20314;-75
2022/02/21 01:20:35;;;;;;;18.33;16.83;;;;;;;;;;5100763;28;20249;-75
2022/02/21 01:23:06;;;;;;;19.88;18.17;;;;;;;;;;5099978;28;20219;-75
2022/02/21 01:25:35;;;;;;;19.35;17.75;;;;;;;;;;5100074;28;20235;-75
2022/02/21 01:28:03;;;;;;;19.77;18.27;;;;;;;;;;5097852;28;20223;-75
2022/02/21 01:30:31;;;;;;;26.75;24.15;;;;;;;;;;5083109;28;20294;-75
2022/02/21 01:32:59;;;;;;;18.85;17.30;;;;;;;;;;5080255;28;20714;-76
2022/02/21 01:35:26;;;;;;;30.70;27.65;;;;;;;;;;5080599;28;20224;-75
2022/02/21 01:37:54;;;;;;;33.67;29.25;;;;;;;;;;5081055;28;20216;-75
2022/02/21 01:40:22;;;;;;;42.10;29.33;;;;;;;;;;5099946;28;20518;-75
2022/02/21 01:42:52;;;;;;;39.97;28.73;;;;;;;;;;5097143;27;20212;-76
2022/02/21 01:45:20;;;;;;;43.50;28.40;;;;;;;;;;5099169;28;20240;-75
2022/02/21 01:47:48;;;;;;;43.00;28.38;;;;;;;;;;5099628;28;20219;-75
2022/02/21 01:50:15;;;;;;;42.10;28.42;;;;;;;;;;5099365;28;20269;-76
2022/02/21 01:52:43;;;;;;;40.72;27.90;;;;;;;;;;5097521;28;20621;-75
2022/02/21 01:55:12;;;;;;;35.03;24.55;;;;;;;;;;5097143;28;20229;-75
2022/02/21 01:57:42;;;;;;;29.08;24.38;;;;;;;;;;5086751;28;20226;-74
2022/02/21 02:00:12;;;;;;;19.17;17.67;;;;;;;;;;5098707;28;20631;-76
2022/02/21 02:02:46;;;;;;;2.13;0.67;;;;;;;;;;5099366;28;20208;-76
2022/02/21 02:05:14;;;;;;;1.50;0.80;;;;;;;;;;5079810;28;20526;-76
2022/02/21 02:07:42;;;;;;;2.20;0.67;;;;;;;;;;5095678;28;20466;-76
2022/02/21 02:10:10;;;;;;;1.10;0.50;;;;;;;;;;5094974;28;20463;-76
2022/02/21 02:12:38;;;;;;;3.63;0.60;;;;;;;;;;5090861;28;20463;-76
2022/02/21 02:15:11;;;;;;;4.40;0.50;;;;;;;;;;5082461;28;20464;-75
2022/02/21 02:17:40;;;;;;;1.13;0.50;;;;;;;;;;5099928;28;20951;-76
2022/02/21 02:20:08;;;;;;;1.00;0.50;;;;;;;;;;5099856;28;20547;-75
2022/02/21 02:22:38;;;;;;;1.20;0.50;;;;;;;;;;5089694;28;20915;-75
2022/02/21 02:25:06;;;;;;;1.50;0.60;;;;;;;;;;5079148;28;20561;-75
2022/02/21 02:27:34;;;;;;;2.00;0.60;;;;;;;;;;5089593;28;20488;-75
2022/02/21 02:30:02;;;;;;;1.60;0.57;;;;;;;;;;5098435;28;20754;-75
2022/02/21 02:32:30;;;;;;;1.57;1.00;;;;;;;;;;5089517;28;20460;-75
2022/02/21 02:34:58;;;;;;;1.83;0.60;;;;;;;;;;5095790;28;21230;-75
2022/02/21 02:37:27;;;;;;;6.10;0.70;;;;;;;;;;5096231;28;20455;-74
2022/02/21 02:39:57;;;;;;;2.17;0.60;;;;;;;;;;5097258;28;20471;-75
2022/02/21 02:42:25;;;;;;;3.23;0.73;;;;;;;;;;5093649;28;20758;-75
2022/02/21 02:44:53;;;;;;;9.40;4.20;;;;;;;;;;5098807;28;20516;-75
2022/02/21 02:47:21;;;;;;;1.93;0.70;;;;;;;;;;5098350;28;20464;-75
2022/02/21 02:49:52;;;;;;;1.60;0.60;;;;;;;;;;5097977;28;20464;-75
2022/02/21 02:52:19;;;;;;;2.77;0.90;;;;;;;;;;5098383;28;20755;-75
2022/02/21 02:54:47;;;;;;;2.10;0.73;;;;;;;;;;5097950;28;20478;-74
2022/02/21 02:57:16;;;;;;;3.53;0.83;;;;;;;;;;5084669;28;21035;-74
2022/02/21 02:59:45;;;;;;;7.03;1.03;;;;;;;;;;5082225;28;20849;-74
2022/02/21 03:02:13;;;;;;;5.03;1.07;;;;;;;;;;5084519;28;20880;-74
2022/02/21 03:04:40;;;;;;;2.60;0.60;;;;;;;;;;5095302;28;21135;-74
2022/02/21 03:07:08;;;;;;;1.73;0.60;;;;;;;;;;5095332;28;20476;-75
2022/02/21 03:09:36;;;;;;;4.50;0.77;;;;;;;;;;5085049;28;20452;-74
2022/02/21 03:12:04;;;;;;;5.60;1.07;;;;;;;;;;5091246;28;20456;-75
2022/02/21 03:14:33;;;;;;;9.90;1.50;;;;;;;;;;5092155;28;20486;-74
2022/02/21 03:17:00;;;;;;;13.63;1.60;;;;;;;;;;5091859;28;20761;-74
2022/02/21 03:19:30;;;;;;;4.60;1.53;;;;;;;;;;5105661;27;20446;-74
2022/02/21 03:21:59;;;;;;;3.80;0.90;;;;;;;;;;5085872;28;20451;-74
2022/02/21 03:24:27;;;;;;;9.80;1.20;;;;;;;;;;5097659;28;20463;-74
2022/02/21 03:26:55;;;;;;;3.43;0.83;;;;;;;;;;5096691;28;20531;-74
2022/02/21 03:29:22;;;;;;;7.77;2.13;;;;;;;;;;5102528;28;20450;-74
2022/02/21 03:31:52;;;;;;;4.40;1.13;;;;;;;;;;5092323;28;20456;-74
2022/02/21 03:34:19;;;;;;;1.83;0.77;;;;;;;;;;5093543;28;20455;-74
2022/02/21 03:36:47;;;;;;;4.97;1.20;;;;;;;;;;5098361;28;20932;-73
2022/02/21 03:39:15;;;;;;;7.53;1.53;;;;;;;;;;5098333;28;20524;-74
2022/02/21 03:41:42;;;;;;;2.73;1.27;;;;;;;;;;5096218;28;20451;-74
2022/02/21 03:44:11;;;;;;;5.73;1.20;;;;;;;;;;5096676;28;20787;-74
2022/02/21 03:46:41;;;;;;;18.57;2.50;;;;;;;;;;5096865;28;20509;-73
2022/02/21 03:49:10;;;;;;;3.87;1.23;;;;;;;;;;5095830;28;20805;-74
2022/02/21 03:51:39;;;;;;;5.90;1.40;;;;;;;;;;5088590;28;20488;-74
2022/02/21 03:54:07;;;;;;;9.50;1.50;;;;;;;;;;5088600;28;20504;-73
2022/02/21 03:56:34;;;;;;;5.63;1.47;;;;;;;;;;5097192;28;20542;-74
2022/02/21 03:59:02;;;;;;;5.30;1.50;;;;;;;;;;5108199;27;20524;-74
2022/02/21 04:01:36;;;;;;;10.70;2.57;;;;;;;;;;5100846;28;20455;-74
2022/02/21 04:04:04;;;;;;;4.63;2.10;;;;;;;;;;5096746;28;20451;-73
2022/02/21 04:06:33;;;;;;;7.57;2.20;;;;;;;;;;5114132;27;20521;-74
2022/02/21 04:09:01;;;;;;;10.23;1.87;;;;;;;;;;5096434;28;20548;-73
2022/02/21 04:11:28;;;;;;;8.00;1.70;;;;;;;;;;5096295;28;20494;-74
2022/02/21 04:13:56;;;;;;;5.50;1.33;;;;;;;;;;5104537;27;20783;-74
2022/02/21 04:16:24;;;;;;;5.43;2.63;;;;;;;;;;5094740;28;20467;-74
2022/02/21 04:18:52;;;;;;;12.40;2.20;;;;;;;;;;5084803;28;20536;-74
2022/02/21 04:21:19;;;;;;;9.43;2.33;;;;;;;;;;5099521;28;21111;-73
2022/02/21 04:23:49;;;;;;;4.10;1.67;;;;;;;;;;5095449;28;20872;-74
2022/02/21 04:26:16;;;;;;;12.93;2.40;;;;;;;;;;5096504;28;20490;-74
2022/02/21 04:28:44;;;;;;;6.67;1.87;;;;;;;;;;5105433;27;20524;-74
2022/02/21 04:31:14;;;;;;;7.20;1.87;;;;;;;;;;5098440;28;20524;-74
2022/02/21 04:33:52;;;;;;;5.80;1.50;;;;;;;;;;5096765;28;20451;-73
2022/02/21 04:36:20;;;;;;;23.70;1.80;;;;;;;;;;5096577;28;20459;-75
2022/02/21 04:38:49;;;;;;;4.90;1.40;;;;;;;;;;5096274;28;20860;-75
2022/02/21 04:41:17;;;;;;;9.17;2.13;;;;;;;;;;5095549;28;20463;-74
2022/02/21 04:43:45;;;;;;;12.40;2.47;;;;;;;;;;5096377;28;20494;-74
2022/02/21 04:46:13;;;;;;;8.10;1.30;;;;;;;;;;5080395;28;20695;-74
2022/02/21 04:48:40;;;;;;;6.27;1.30;;;;;;;;;;5096196;28;20443;-74
2022/02/21 04:51:08;;;;;;;10.93;2.03;;;;;;;;;;5095850;28;20464;-74
2022/02/21 04:53:36;;;;;;;5.13;1.80;;;;;;;;;;5096182;28;20444;-75
2022/02/21 04:56:05;;;;;;;4.83;1.10;;;;;;;;;;5087714;28;20468;-74
2022/02/21 04:58:33;;;;;;;5.57;1.70;;;;;;;;;;5098709;28;20447;-74
2022/02/21 05:01:01;;;;;;;4.60;1.17;;;;;;;;;;5100497;27;20483;-74
2022/02/21 05:03:28;;;;;;;5.17;1.77;;;;;;;;;;5096405;28;20878;-73
2022/02/21 05:05:56;;;;;;;13.63;1.83;;;;;;;;;;5105889;27;20838;-74
2022/02/21 05:08:24;;;;;;;4.80;1.27;;;;;;;;;;5105784;28;20525;-74
2022/02/21 05:10:51;;;;;;;4.40;1.17;;;;;;;;;;5099795;28;20482;-74
2022/02/21 05:13:21;;;;;;;5.40;2.40;;;;;;;;;;5098900;28;20803;-74
2022/02/21 05:15:48;;;;;;;13.83;2.10;;;;;;;;;;5100717;28;20482;-74
2022/02/21 05:18:16;;;;;;;2.43;1.50;;;;;;;;;;5113633;28;20444;-74
2022/02/21 05:20:44;;;;;;;5.23;1.67;;;;;;;;;;5100053;28;20462;-74
2022/02/21 05:23:11;;;;;;;6.83;2.90;;;;;;;;;;5098330;28;20470;-74
2022/02/21 05:25:39;;;;;;;6.77;1.63;;;;;;;;;;5112757;27;20466;-74
2022/02/21 05:28:09;;;;;;;6.53;1.73;;;;;;;;;;5098531;28;20444;-74
2022/02/21 05:30:39;;;;;;;9.73;2.93;;;;;;;;;;5098721;28;20554;-73
2022/02/21 05:33:07;;;;;;;6.20;1.70;;;;;;;;;;5090379;28;20794;-74
2022/02/21 05:35:35;;;;;;;13.53;1.63;;;;;;;;;;5098125;28;20545;-74
2022/02/21 05:38:02;;;;;;;7.00;2.53;;;;;;;;;;5099310;28;20791;-74
2022/02/21 05:40:30;;;;;;;6.33;1.40;;;;;;;;;;5099191;28;20922;-74
2022/02/21 05:42:58;;;;;;;9.33;2.00;;;;;;;;;;5105643;27;20450;-74
2022/02/21 05:45:26;;;;;;;10.93;1.83;;;;;;;;;;5112812;27;20555;-74
2022/02/21 05:47:55;;;;;;;6.47;1.60;;;;;;;;;;5100671;28;20487;-74
2022/02/21 05:50:23;;;;;;;5.57;1.73;;;;;;;;;;5102459;28;21010;-74
2022/02/21 05:52:50;;;;;;;7.13;1.73;;;;;;;;;;5090394;28;21032;-74
2022/02/21 05:55:18;;;;;;;4.73;2.00;;;;;;;;;;5094599;28;20474;-74
2022/02/21 05:57:46;;;;;;;5.10;2.00;;;;;;;;;;5097891;28;20511;-74
2022/02/21 06:00:14;;;;;;;5.43;1.80;;;;;;;;;;5098347;28;20472;-74
2022/02/21 06:02:42;;;;;;;8.27;2.80;;;;;;;;;;5096527;28;20477;-74
2022/02/21 06:05:11;;;;;;;11.37;2.03;;;;;;;;;;5097375;28;20760;-75
2022/02/21 06:07:39;;;;;;;14.80;2.00;;;;;;;;;;5096880;28;20484;-74
2022/02/21 06:10:07;;;;;;;15.67;2.63;;;;;;;;;;5097018;28;20466;-74
2022/02/21 06:12:35;;;;;;;10.73;1.53;;;;;;;;;;5097868;28;20455;-74
2022/02/21 06:15:02;;;;;;;5.30;1.83;;;;;;;;;;5090431;28;20468;-74
2022/02/21 06:17:30;;;;;;;15.57;2.87;;;;;;;;;;5090038;28;20466;-74
2022/02/21 06:19:58;;;;;;;7.20;1.73;;;;;;;;;;5105599;27;20463;-74
2022/02/21 06:22:27;;;;;;;5.47;1.73;;;;;;;;;;5104167;27;20560;-74
2022/02/21 06:24:55;;;;;;;10.27;1.97;;;;;;;;;;5108786;27;20454;-74
2022/02/21 06:27:22;;;;;;;6.60;1.50;;;;;;;;;;5100560;27;20545;-74
2022/02/21 06:29:50;;;;;;;13.07;2.77;;;;;;;;;;5079710;28;20452;-74
2022/02/21 06:32:18;;;;;;;15.90;2.10;;;;;;;;;;5090123;28;20467;-74
2022/02/21 06:34:48;;;;;;;3.50;1.00;;;;;;;;;;5088765;28;20744;-74
2022/02/21 06:37:16;;;;;;;6.73;2.13;;;;;;;;;;5095045;28;20612;-74
2022/02/21 06:39:45;;;;;;;6.40;1.63;;;;;;;;;;5095571;28;21170;-74
2022/02/21 06:42:13;;;;;;;2.83;1.30;;;;;;;;;;5095312;28;20456;-74
2022/02/21 06:44:41;;;;;;;11.83;2.90;;;;;;;;;;5095737;28;20468;-74
2022/02/21 06:47:09;;;;;;;8.00;3.03;;;;;;;;;;5096087;28;20492;-75
2022/02/21 06:49:41;;;;;;;5.63;1.90;;;;;;;;;;5113125;27;20470;-74
2022/02/21 06:52:09;;;;;;;8.20;2.57;;;;;;;;;;5074257;28;20463;-74
2022/02/21 06:54:39;;;;;;;7.93;2.10;;;;;;;;;;5093553;28;20467;-74
2022/02/21 06:57:09;;;;;;;8.73;2.33;;;;;;;;;;5094576;28;20520;-73
2022/02/21 06:59:43;;;;;;;9.33;2.83;;;;;;;;;;5094639;28;20467;-75
2022/02/21 07:02:11;;;;;;;5.03;1.30;;;;;;;;;;5081286;28;20462;-75
2022/02/21 07:04:48;;;;;;;7.53;2.00;;;;;;;;;;5095356;28;20463;-73
2022/02/21 07:07:21;;;;;;;12.57;2.50;;;;;;;;;;5095415;28;20945;-75
2022/02/21 07:09:55;;;;;;;3.57;0.70;;;;;;;;;;5095243;28;20549;-75
2022/02/21 07:12:33;;;;;;;12.07;2.23;;;;;;;;;;5104274;28;20447;-75
2022/02/21 07:15:10;;;;;;;12.53;2.03;;;;;;;;;;5083689;28;20470;-74
2022/02/21 07:17:42;;;;;;;4.90;1.70;;;;;;;;;;5095936;28;20471;-74
2022/02/21 07:20:16;;;;;;;5.80;1.90;;;;;;;;;;5077996;28;20926;-74
2022/02/21 07:22:48;;;;;;;9.37;1.90;;;;;;;;;;5074880;28;20459;-74
2022/02/21 07:25:17;;;;;;;10.30;2.03;;;;;;;;;;5075940;28;20488;-74
2022/02/21 07:27:47;;;;;;;7.03;1.87;;;;;;;;;;5081427;28;20510;-74
2022/02/21 07:30:16;;;;;;;9.23;2.17;;;;;;;;;;5109306;27;20951;-74
2022/02/21 07:32:48;;;;;;;13.67;2.63;;;;;;;;;;5082854;28;20472;-74
2022/02/21 07:35:16;;;;;;;16.10;2.13;;;;;;;;;;5089434;28;20623;-74
2022/02/21 07:37:52;;;;;;;8.50;2.20;;;;;;;;;;5094259;28;20467;-75
2022/02/21 07:40:41;;;;;;;;;;;;;;;;;;;;;
2022/02/21 07:43:27;;;;;;;7.90;1.87;;;;;;;;;;5073641;28;20542;-75
2022/02/21 07:45:58;;;;;;;9.13;2.63;;;;;;;;;;5092217;28;20555;-74
2022/02/21 07:48:26;;;;;;;4.13;1.00;;;;;;;;;;5093084;28;20487;-74
2022/02/21 07:50:59;;;;;;;12.63;1.97;;;;;;;;;;5077076;28;20444;-73
2022/02/21 07:53:27;;;;;;;3.43;1.90;;;;;;;;;;5075084;28;20459;-74
2022/02/21 07:55:55;;;;;;;8.17;2.43;;;;;;;;;;5088026;28;20486;-74
2022/02/21 07:58:24;;;;;;;8.70;2.77;;;;;;;;;;5106958;28;20459;-74
2022/02/21 08:00:53;;;;;;;5.27;1.60;;;;;;;;;;5114000;27;20447;-74
2022/02/21 08:03:20;;;;;;;3.53;1.70;;;;;;;;;;5084159;28;20448;-74
2022/02/21 08:05:49;;;;;;;7.57;2.63;;;;;;;;;;5096363;28;20464;-74
2022/02/21 08:08:19;;;;;;;11.53;2.10;;;;;;;;;;5096443;28;20827;-74
2022/02/21 08:11:02;;;;;;;6.43;1.67;;;;;;;;;;5096642;28;20464;-74
2022/02/21 08:13:33;;;;;;;3.57;2.00;;;;;;;;;;5106240;27;20447;-74
2022/02/21 08:16:01;;;;;;;7.50;1.87;;;;;;;;;;5091163;28;20899;-74
2022/02/21 08:18:43;;;;;;;6.33;2.60;;;;;;;;;;5089226;28;20515;-73
2022/02/21 08:21:13;;;;;;;4.87;2.37;;;;;;;;;;5094712;28;20486;-74
2022/02/21 08:23:43;;;;;;;6.00;2.47;;;;;;;;;;5097067;28;20455;-74
2022/02/21 08:26:16;;;;;;;8.77;2.27;;;;;;;;;;5086371;28;20468;-74
2022/02/21 08:28:45;;;;;;;6.80;2.83;;;;;;;;;;5091784;28;20479;-74
2022/02/21 08:31:18;;;;;;;9.03;3.10;;;;;;;;;;5086054;28;20546;-74
2022/02/21 08:33:45;;;;;;;4.67;1.87;;;;;;;;;;5094797;28;20447;-74
2022/02/21 08:36:13;;;;;;;12.73;3.00;;;;;;;;;;5093459;28;20464;-74
2022/02/21 08:38:41;;;;;;;9.70;1.70;;;;;;;;;;5093080;28;20456;-74
2022/02/21 08:41:10;;;;;;;4.13;3.13;;;;;;;;;;5085426;28;20476;-75
2022/02/21 08:43:39;;;;;;;5.83;2.00;;;;;;;;;;5088439;28;20610;-74
2022/02/21 08:46:14;;;;;;;4.83;1.20;;;;;;;;;;5082285;28;20495;-74
2022/02/21 08:48:55;;;;;;;6.63;1.73;;;;;;;;;;5081332;28;20741;-74
2022/02/21 08:51:31;;;;;;;7.97;1.40;;;;;;;;;;5085937;28;20786;-74
2022/02/21 08:54:03;;;;;;;6.77;2.40;;;;;;;;;;5078123;28;20456;-74
2022/02/21 08:56:46;;;;;;;6.23;2.17;;;;;;;;;;5085200;28;20540;-74
2022/02/21 08:59:18;;;;;;;5.60;1.43;;;;;;;;;;5077431;28;20453;-74
2022/02/21 09:02:00;;;;;;;8.23;1.90;;;;;;;;;;5076154;28;20533;-73
2022/02/21 09:04:40;;;;;;;9.03;2.00;;;;;;;;;;5092152;27;20477;-74
2022/02/21 09:07:08;;;;;;;3.87;1.67;;;;;;;;;;5084202;28;20554;-74
2022/02/21 09:09:54;;;;;;;3.67;1.07;;;;;;;;;;5084537;28;20454;-74
2022/02/21 09:12:27;;;;;;;3.57;1.87;;;;;;;;;;5096586;28;20554;-74
2022/02/21 09:15:01;;;;;;;7.47;1.47;;;;;;;;;;5096254;27;20451;-74
2022/02/21 09:17:36;;;;;;;8.03;1.90;;;;;;;;;;5088080;28;20468;-74
2022/02/21 09:20:05;;;;;;;11.17;4.50;;;;;;;;;;5100131;27;20476;-74
2022/02/21 09:22:32;;;;;;;11.73;2.87;;;;;;;;;;5093898;28;20448;-75
2022/02/21 09:25:00;;;;;;;3.00;1.53;;;;;;;;;;5092396;28;20968;-74
2022/02/21 09:27:29;;;;;;;8.63;3.23;;;;;;;;;;5089969;28;20484;-74
2022/02/21 09:29:59;;;;;;;6.90;1.73;;;;;;;;;;5086888;28;20459;-73
2022/02/21 09:32:37;;;;;;;7.57;2.50;;;;;;;;;;5084817;27;20846;-74
2022/02/21 09:35:09;;;;;;;10.27;2.60;;;;;;;;;;5085113;28;20456;-73
2022/02/21 09:37:41;;;;;;;4.37;1.37;;;;;;;;;;5079353;28;20469;-74
2022/02/21 09:40:15;;;;;;;12.17;3.00;;;;;;;;;;5079568;28;20550;-74
2022/02/21 09:42:53;;;;;;;6.20;1.77;;;;;;;;;;5095688;28;20442;-74
2022/02/21 09:45:23;;;;;;;4.73;1.90;;;;;;;;;;5096759;28;20479;-74
2022/02/21 09:47:59;;;;;;;8.03;1.70;;;;;;;;;;5104316;27;20503;-74
2022/02/21 09:50:37;;;;;;;5.47;2.03;;;;;;;;;;5097226;28;20472;-73
2022/02/21 09:53:06;;;;;;;7.10;3.57;;;;;;;;;;5096070;28;21047;-73
2022/02/21 09:55:42;;;;;;;3.50;2.00;;;;;;;;;;5094374;28;21035;-74
2022/02/21 09:58:10;;;;;;;7.93;1.40;;;;;;;;;;5103818;28;20748;-74
2022/02/21 10:00:38;;;;;;;12.30;1.60;;;;;;;;;;5098314;28;20720;-73
2022/02/21 10:03:06;;;;;;;10.60;1.90;;;;;;;;;;5096518;28;20463;-74
2022/02/21 10:05:48;;;;;;;8.27;1.17;;;;;;;;;;5079457;28;20467;-74
2022/02/21 10:08:18;;;;;;;4.90;1.60;;;;;;;;;;5079651;28;20475;-73
2022/02/21 10:10:57;;;;;;;9.17;1.83;;;;;;;;;;5095944;28;20551;-74
2022/02/21 10:13:37;;;;;;;5.37;2.17;;;;;;;;;;5095946;28;20464;-73
2022/02/21 10:16:16;;;;;;;6.00;1.60;;;;;;;;;;5099436;28;20457;-73
2022/02/21 10:18:44;;;;;;;3.90;1.40;;;;;;;;;;5115797;27;20462;-72
2022/02/21 10:21:14;;;;;;;5.63;2.17;;;;;;;;;;5095605;28;20443;-73
2022/02/21 10:23:44;;;;;;;7.90;2.53;;;;;;;;;;5095656;28;20493;-73
2022/02/21 10:26:12;;;;;;;9.20;2.10;;;;;;;;;;5095718;28;20479;-72
2022/02/21 10:28:42;;;;;;;13.83;5.20;;;;;;;;;;5095477;28;20479;-74
2022/02/21 10:31:19;;;;;;;10.47;2.53;;;;;;;;;;5096598;28;20575;-72
2022/02/21 10:33:59;;;;;;;5.73;1.83;;;;;;;;;;5093950;27;20517;-73
2022/02/21 10:36:35;;;;;;;7.40;3.10;;;;;;;;;;5096450;28;20467;-73
2022/02/21 10:39:06;;;;;;;10.90;3.70;;;;;;;;;;5089678;28;20550;-73
2022/02/21 10:41:46;;;;;;;11.77;3.93;;;;;;;;;;5075033;28;21086;-73
2022/02/21 10:44:18;;;;;;;4.70;1.60;;;;;;;;;;5084081;28;20456;-74
2022/02/21 10:47:05;;;;;;;4.87;1.60;;;;;;;;;;5094286;27;20796;-72
2022/02/21 10:49:33;;;;;;;6.13;1.27;;;;;;;;;;5086445;27;20927;-72
2022/02/21 10:52:10;;;;;;;2.73;1.80;;;;;;;;;;5079426;28;20522;-72
2022/02/21 10:54:38;;;;;;;7.00;2.83;;;;;;;;;;5092877;28;20461;-72
2022/02/21 10:57:09;;;;;;;10.70;2.57;;;;;;;;;;5092012;28;20466;-73
2022/02/21 10:59:37;;;;;;;9.00;2.70;;;;;;;;;;5092165;28;20569;-72
2022/02/21 11:02:10;;;;;;;8.77;2.83;;;;;;;;;;5096541;28;20508;-72
2022/02/21 11:04:39;;;;;;;5.10;1.90;;;;;;;;;;5091544;28;20469;-72
2022/02/21 11:07:10;;;;;;;7.10;2.30;;;;;;;;;;5093903;28;20455;-74
2022/02/21 11:09:44;;;;;;;4.33;1.90;;;;;;;;;;5093377;28;20488;-74
2022/02/21 11:12:14;;;;;;;6.70;2.00;;;;;;;;;;5094256;28;20531;-72
2022/02/21 11:14:42;;;;;;;7.83;2.87;;;;;;;;;;5093304;28;20890;-72
2022/02/21 11:17:13;;;;;;;7.03;1.70;;;;;;;;;;5095898;28;20524;-72
2022/02/21 11:22:32;;;;;;;10.87;3.67;;;;;;;;;;5084782;28;20794;-73
2022/02/21 11:25:04;;;;;;;12.70;3.03;;;;;;;;;;5096649;28;20630;-73
2022/02/21 11:27:39;;;;;;;2.13;1.27;;;;;;;;;;5096695;28;20463;-72
2022/02/21 11:30:16;;;;;;;7.67;1.80;;;;;;;;;;5097394;28;20473;-72
2022/02/21 11:33:01;;;;;;;7.40;1.90;;;;;;;;;;5094797;28;20935;-73
2022/02/21 11:35:33;;;;;;;6.60;2.40;;;;;;;;;;5075611;28;20538;-72
2022/02/21 11:38:18;;;;;;;13.70;2.70;;;;;;;;;;5073581;28;20457;-72
2022/02/21 11:40:56;;;;;;;6.63;1.50;;;;;;;;;;5091180;28;20443;-72
2022/02/21 11:43:31;;;;;;;8.47;1.90;;;;;;;;;;5081333;28;20484;-72
2022/02/21 11:46:05;;;;;;;10.07;2.03;;;;;;;;;;5075170;28;20841;-73
2022/02/21 11:48:54;;;;;;;9.70;1.73;;;;;;;;;;5075030;28;20574;-73
2022/02/21 11:51:29;;;;;;;6.30;1.27;;;;;;;;;;5086375;28;20476;-72
2022/02/21 11:54:17;;;;;;;3.20;2.20;;;;;;;;;;5094522;28;20466;-73
2022/02/21 11:57:06;;;;;;;6.37;1.67;;;;;;;;;;5094763;28;20452;-73
2022/02/21 11:59:35;;;;;;;5.53;1.23;;;;;;;;;;5095448;28;20507;-72
2022/02/21 12:02:03;;;;;;;5.10;1.27;;;;;;;;;;5094014;28;20470;-73
2022/02/21 12:04:46;;;;;;;6.03;3.67;;;;;;;;;;5095007;28;20940;-73
2022/02/21 12:07:22;;;;;;;3.73;1.50;;;;;;;;;;5088648;28;20454;-73
2022/02/21 12:10:09;;;;;;;6.63;1.57;;;;;;;;;;5098707;28;20478;-73
2022/02/21 12:12:51;;;;;;;4.77;1.53;;;;;;;;;;5090359;28;20459;-72
2022/02/21 12:15:22;;;;;;;3.37;1.63;;;;;;;;;;5094914;28;20935;-75
2022/02/21 12:18:05;;;;;;;2.00;0.77;;;;;;;;;;5095312;28;20459;-73
2022/02/21 12:20:38;;;;;;;18.03;2.30;;;;;;;;;;5095165;28;20451;-73
2022/02/21 12:23:23;;;;;;;7.37;1.63;;;;;;;;;;5094732;28;20443;-73
2022/02/21 12:26:18;;;;;;;7.57;1.90;;;;;;;;;;5095256;28;20452;-73
2022/02/21 12:29:06;;;;;;;6.13;1.60;;;;;;;;;;5093754;28;20475;-73
2022/02/21 12:31:56;;;;;;;4.37;1.10;;;;;;;;;;5087852;28;20468;-73
2022/02/21 12:34:27;;;;;;;3.10;1.27;;;;;;;;;;5088144;28;20494;-72
2022/02/21 12:36:59;;;;;;;5.77;1.53;;;;;;;;;;5094603;28;20451;-72
2022/02/21 12:39:28;;;;;;;4.67;2.23;;;;;;;;;;5091879;28;20541;-72
2022/02/21 12:41:56;;;;;;;6.83;2.30;;;;;;;;;;5089465;28;20460;-72
2022/02/21 12:44:25;;;;;;;3.47;1.10;;;;;;;;;;5073805;28;20468;-72
2022/02/21 12:46:56;;;;;;;6.30;1.67;;;;;;;;;;5092351;28;20474;-72
2022/02/21 12:49:26;;;;;;;9.70;2.03;;;;;;;;;;5088855;28;20585;-73
2022/02/21 12:51:55;;;;;;;9.80;2.23;;;;;;;;;;5091688;28;20559;-73
2022/02/21 12:54:25;;;;;;;3.33;1.80;;;;;;;;;;5079037;28;20899;-72
2022/02/21 12:56:54;;;;;;;6.13;1.47;;;;;;;;;;5075756;28;21109;-72
2022/02/21 12:59:23;;;;;;;2.93;1.13;;;;;;;;;;5079853;28;20444;-73
2022/02/21 13:01:51;;;;;;;8.13;1.97;;;;;;;;;;5104413;27;20455;-73
2022/02/21 13:04:41;;;;;;;3.00;1.30;;;;;;;;;;5099317;28;20460;-73
2022/02/21 13:07:11;;;;;;;7.40;1.83;;;;;;;;;;5094645;28;21063;-73
2022/02/21 13:09:39;;;;;;;4.63;2.10;;;;;;;;;;5094143;28;20831;-72
2022/02/21 13:12:15;;;;;;;9.47;3.33;;;;;;;;;;5094406;28;20475;-72
2022/02/21 13:14:43;;;;;;;2.63;1.37;;;;;;;;;;5092154;28;20502;-73
2022/02/21 13:17:11;;;;;;;4.77;1.20;;;;;;;;;;5094373;28;20513;-73
2022/02/21 13:19:42;;;;;;;6.23;1.90;;;;;;;;;;5095247;28;20519;-73
2022/02/21 13:22:18;;;;;;;12.10;2.00;;;;;;;;;;5094475;28;20463;-73
2022/02/21 13:24:48;;;;;;;1.93;1.20;;;;;;;;;;5084606;28;20484;-73
2022/02/21 13:27:21;;;;;;;5.13;2.00;;;;;;;;;;5094705;28;20480;-73
2022/02/21 13:29:49;;;;;;;5.57;1.33;;;;;;;;;;5095773;28;20844;-73
2022/02/21 13:32:26;;;;;;;2.73;1.80;;;;;;;;;;5096704;28;20479;-73
2022/02/21 13:35:01;;;;;;;2.77;1.07;;;;;;;;;;5097994;28;20972;-74
2022/02/21 13:37:39;;;;;;;2.70;1.30;;;;;;;;;;5094558;28;20546;-74
2022/02/21 13:40:09;;;;;;;10.03;2.60;;;;;;;;;;5081483;28;21105;-73
2022/02/21 13:42:41;;;;;;;4.23;2.47;;;;;;;;;;5096808;28;20632;-73
2022/02/21 13:45:19;;;;;;;2.73;1.70;;;;;;;;;;5077177;28;20529;-74
2022/02/21 13:47:57;;;;;;;6.40;2.20;;;;;;;;;;5094115;28;20467;-75
2022/02/21 13:50:45;;;;;;;2.30;1.40;;;;;;;;;;5093037;28;20491;-73
2022/02/21 13:53:20;;;;;;;3.43;1.87;;;;;;;;;;5097220;28;20452;-73
2022/02/21 13:55:55;;;;;;;2.90;2.03;;;;;;;;;;5093779;28;20468;-74
2022/02/21 13:58:39;;;;;;;2.97;1.67;;;;;;;;;;5091171;28;20904;-74
2022/02/21 14:01:23;;;;;;;2.97;1.97;;;;;;;;;;5096431;28;20458;-75
2022/02/21 14:03:51;;;;;;;2.90;1.90;;;;;;;;;;5097184;28;20464;-74
2022/02/21 14:06:21;;;;;;;4.03;1.50;;;;;;;;;;5096741;28;20455;-74
2022/02/21 14:08:52;;;;;;;2.80;1.90;;;;;;;;;;5098399;27;20496;-74
2022/02/21 14:11:41;;;;;;;3.37;2.07;;;;;;;;;;5075588;28;20486;-75
2022/02/21 14:14:10;;;;;;;3.30;1.80;;;;;;;;;;5076812;28;20457;-74
2022/02/21 14:16:38;;;;;;;4.83;1.97;;;;;;;;;;5076829;28;20457;-74
2022/02/21 14:19:05;;;;;;;3.10;1.67;;;;;;;;;;5075616;28;21067;-74
2022/02/21 14:21:36;;;;;;;4.30;2.10;;;;;;;;;;5092287;28;20458;-75
2022/02/21 14:24:07;;;;;;;2.07;1.73;;;;;;;;;;5108967;27;20464;-74
2022/02/21 14:27:02;;;;;;;3.03;2.00;;;;;;;;;;5096463;28;20463;-74
2022/02/21 14:29:31;;;;;;;4.63;2.07;;;;;;;;;;5089246;28;20476;-74
2022/02/21 14:32:02;;;;;;;2.17;1.97;;;;;;;;;;5090836;28;20524;-73
2022/02/21 14:34:31;;;;;;;3.53;2.03;;;;;;;;;;5075205;28;20980;-74
2022/02/21 14:37:04;;;;;;;3.57;2.17;;;;;;;;;;5087290;28;20447;-73
2022/02/21 14:39:45;;;;;;;4.60;1.70;;;;;;;;;;5095925;28;20532;-74
2022/02/21 14:42:29;;;;;;;3.27;1.87;;;;;;;;;;5093849;28;21113;-74
2022/02/21 14:45:00;;;;;;;4.43;2.10;;;;;;;;;;5081427;28;20987;-74
2022/02/21 14:47:28;;;;;;;4.60;2.30;;;;;;;;;;5077174;28;20445;-73
2022/02/21 14:49:56;;;;;;;3.43;2.07;;;;;;;;;;5086930;28;20483;-74
2022/02/21 14:52:26;;;;;;;5.60;2.63;;;;;;;;;;5081420;28;20766;-73
2022/02/21 14:54:57;;;;;;;2.60;1.43;;;;;;;;;;5074819;28;20473;-75
2022/02/21 14:57:28;;;;;;;3.83;2.70;;;;;;;;;;5074231;28;20828;-74
2022/02/21 14:59:56;;;;;;;2.50;1.80;;;;;;;;;;5075388;28;20468;-74
2022/02/21 15:02:26;;;;;;;3.67;2.70;;;;;;;;;;5075228;28;20460;-75
2022/02/21 15:05:07;;;;;;;2.93;2.20;;;;;;;;;;5075567;28;20487;-74